KSGR/SGR METAR and TAF weather

Enter ICAO airport designator
Station Type Date Time Source
KSGR METAR 2022/12/08 11:53 UTC NOAA

KSGR 081153Z 16004KT 7SM BKN008 OVC021 21/20 A3017 RMK AO2 SLP219 T02110200 10228 20211 55002


Station Type Date Time Source
KSGR Decoded METAR 2022/12/08 11:53 UTC NOAA

SUGARLAND REGIONAL AIRPORT, TX, United States (KSGR) 29-37N 095-39W
Dec 08, 2022 - 06:53 AM EST / 2022.12.08 1153 UTC
Wind: from the SSE (160 degrees) at 5 MPH (4 KT):0
Visibility: 7 mile(s):0
Sky conditions: overcast
Temperature: 70.0 F (21.1 C)
Dew Point: 68.0 F (20.0 C)
Relative Humidity: 93%
Pressure (altimeter): 30.17 in. Hg (1021 hPa)
Pressure tendency: 0.01 inches (0.2 hPa) lower than three hours ago
ob: KSGR 081153Z 16004KT 7SM BKN008 OVC021 21/20 A3017 RMK AO2 SLP219 T02110200 10228 20211 55002
cycle: 12

Station Type Date Time Source
KSGR TAF 2022/12/08 12:36 UTC NOAA

TAF KSGR 081135Z 0812/0912 VRB03KT P6SM FEW010 OVC020
FM081400 16005KT 4SM BR SCT005 SCT015
FM081800 19010KT P6SM SCT020
FM090000 15005KT P6SM SCT030
FM090700 17004KT 4SM BR BKN015
FM090900 VRB03KT 1/2SM FG OVC003

Example: see airport list